sensor_id;sensor_type;location;lat;lon;timestamp;pressure;altitude;pressure_sealevel;temperature;humidity
18014;BME280;9132;47.946;10.394;2024-01-10T00:01:19;94577.53;;;-5.45;100.00
18014;BME280;9132;47.946;10.394;2024-01-10T00:03:46;94569.81;;;-5.45;100.00
18014;BME280;9132;47.946;10.394;2024-01-10T00:06:14;94567.25;;;-5.45;100.00
18014;BME280;9132;47.946;10.394;2024-01-10T00:08:40;94570.88;;;-5.49;100.00
18014;BME280;9132;47.946;10.394;2024-01-10T00:11:07;94574.78;;;-5.42;100.00
18014;BME280;9132;47.946;10.394;2024-01-10T00:13:33;94574.69;;;-5.41;100.00
18014;BME280;9132;47.946;10.394;2024-01-10T00:16:00;94565.22;;;-5.40;100.00
18014;BME280;9132;47.946;10.394;2024-01-10T00:18:26;94581.75;;;-5.44;100.00
18014;BME280;9132;47.946;10.394;2024-01-10T00:20:53;94575.44;;;-5.39;100.00
18014;BME280;9132;47.946;10.394;2024-01-10T00:23:21;94574.59;;;-5.39;100.00
18014;BME280;9132;47.946;10.394;2024-01-10T00:25:48;94573.69;;;-5.38;100.00
18014;BME280;9132;47.946;10.394;2024-01-10T00:28:15;94569.28;;;-5.36;100.00
18014;BME280;9132;47.946;10.394;2024-01-10T00:30:43;94574.41;;;-5.36;100.00
18014;BME280;9132;47.946;10.394;2024-01-10T00:33:09;94568.28;;;-5.33;100.00
18014;BME280;9132;47.946;10.394;2024-01-10T00:35:36;94568.19;;;-5.32;100.00
18014;BME280;9132;47.946;10.394;2024-01-10T00:38:03;94571.66;;;-5.33;100.00
18014;BME280;9132;47.946;10.394;2024-01-10T00:40:31;94576.63;;;-5.30;100.00
18014;BME280;9132;47.946;10.394;2024-01-10T00:42:58;94574.81;;;-5.28;100.00
18014;BME280;9132;47.946;10.394;2024-01-10T00:45:24;94577.38;;;-5.28;100.00
18014;BME280;9132;47.946;10.394;2024-01-10T00:47:51;94574.81;;;-5.28;100.00
18014;BME280;9132;47.946;10.394;2024-01-10T00:50:17;94572.34;;;-5.29;100.00
18014;BME280;9132;47.946;10.394;2024-01-10T00:52:44;94573.16;;;-5.29;100.00
18014;BME280;9132;47.946;10.394;2024-01-10T00:55:11;94584.28;;;-5.28;100.00
18014;BME280;9132;47.946;10.394;2024-01-10T00:57:39;94574.75;;;-5.26;100.00
18014;BME280;9132;47.946;10.394;2024-01-10T01:00:07;94574.47;;;-5.22;100.00
18014;BME280;9132;47.946;10.394;2024-01-10T01:02:34;94573.47;;;-5.19;100.00
18014;BME280;9132;47.946;10.394;2024-01-10T01:05:01;94575.09;;;-5.18;100.00
18014;BME280;9132;47.946;10.394;2024-01-10T01:07:28;94581.19;;;-5.19;100.00
18014;BME280;9132;47.946;10.394;2024-01-10T01:09:55;94575.47;;;-5.24;100.00
18014;BME280;9132;47.946;10.394;2024-01-10T01:12:22;94585.56;;;-5.21;100.00
18014;BME280;9132;47.946;10.394;2024-01-10T01:14:49;94591.28;;;-5.16;100.00
18014;BME280;9132;47.946;10.394;2024-01-10T01:17:16;94584.22;;;-5.13;100.00
18014;BME280;9132;47.946;10.394;2024-01-10T01:19:43;94596.09;;;-5.10;100.00
18014;BME280;9132;47.946;10.394;2024-01-10T01:22:09;94605.56;;;-5.10;100.00
18014;BME280;9132;47.946;10.394;2024-01-10T01:24:36;94609.66;;;-5.08;100.00
18014;BME280;9132;47.946;10.394;2024-01-10T01:27:03;94604.53;;;-5.08;100.00
18014;BME280;9132;47.946;10.394;2024-01-10T01:29:29;94602.88;;;-5.09;100.00
18014;BME280;9132;47.946;10.394;2024-01-10T01:31:57;94607.94;;;-5.07;100.00
18014;BME280;9132;47.946;10.394;2024-01-10T01:34:24;94598.47;;;-5.07;100.00
18014;BME280;9132;47.946;10.394;2024-01-10T01:36:50;94601.13;;;-5.08;100.00
18014;BME280;9132;47.946;10.394;2024-01-10T01:39:17;94600.31;;;-5.09;100.00
18014;BME280;9132;47.946;10.394;2024-01-10T01:41:44;94590.84;;;-5.08;100.00
18014;BME280;9132;47.946;10.394;2024-01-10T01:44:10;94591.84;;;-5.11;100.00
18014;BME280;9132;47.946;10.394;2024-01-10T01:46:37;94586.69;;;-5.11;100.00
18014;BME280;9132;47.946;10.394;2024-01-10T01:49:06;94595.34;;;-5.12;100.00
18014;BME280;9132;47.946;10.394;2024-01-10T01:51:35;94590.19;;;-5.12;100.00
18014;BME280;9132;47.946;10.394;2024-01-10T01:54:05;94586.31;;;-5.19;100.00
18014;BME280;9132;47.946;10.394;2024-01-10T01:56:32;94576.75;;;-5.17;100.00
18014;BME280;9132;47.946;10.394;2024-01-10T01:58:59;94573.19;;;-5.15;100.00
18014;BME280;9132;47.946;10.394;2024-01-10T02:01:26;94576.69;;;-5.16;100.00
18014;BME280;9132;47.946;10.394;2024-01-10T02:03:53;94575.75;;;-5.15;100.00
18014;BME280;9132;47.946;10.394;2024-01-10T02:06:22;94569.78;;;-5.15;100.00
18014;BME280;9132;47.946;10.394;2024-01-10T02:08:49;94570.44;;;-5.12;100.00
18014;BME280;9132;47.946;10.394;2024-01-10T02:11:17;94563.72;;;-5.14;100.00
18014;BME280;9132;47.946;10.394;2024-01-10T02:13:44;94566.09;;;-5.11;100.00
18014;BME280;9132;47.946;10.394;2024-01-10T02:16:11;94563.53;;;-5.11;100.00
18014;BME280;9132;47.946;10.394;2024-01-10T02:18:38;94562.47;;;-5.07;100.00
18014;BME280;9132;47.946;10.394;2024-01-10T02:21:04;94566.56;;;-5.04;100.00
18014;BME280;9132;47.946;10.394;2024-01-10T02:23:32;94561.34;;;-5.03;100.00
18014;BME280;9132;47.946;10.394;2024-01-10T02:26:00;94562.19;;;-5.02;100.00
18014;BME280;9132;47.946;10.394;2024-01-10T02:28:27;94558.69;;;-5.01;100.00
18014;BME280;9132;47.946;10.394;2024-01-10T02:30:54;94563.75;;;-5.00;100.00
18014;BME280;9132;47.946;10.394;2024-01-10T02:33:21;94562.00;;;-4.99;100.00
18014;BME280;9132;47.946;10.394;2024-01-10T02:35:48;94557.59;;;-4.97;100.00
18014;BME280;9132;47.946;10.394;2024-01-10T02:38:15;94560.88;;;-4.95;100.00
18014;BME280;9132;47.946;10.394;2024-01-10T02:40:41;94555.66;;;-4.94;100.00
18014;BME280;9132;47.946;10.394;2024-01-10T02:43:09;94557.06;;;-4.88;100.00
18014;BME280;9132;47.946;10.394;2024-01-10T02:45:36;94559.53;;;-4.86;100.00
18014;BME280;9132;47.946;10.394;2024-01-10T02:48:03;94556.88;;;-4.85;100.00
18014;BME280;9132;47.946;10.394;2024-01-10T02:50:29;94560.97;;;-4.82;100.00
18014;BME280;9132;47.946;10.394;2024-01-10T02:52:56;94561.66;;;-4.79;100.00
18014;BME280;9132;47.946;10.394;2024-01-10T02:55:22;94561.56;;;-4.77;100.00
18014;BME280;9132;47.946;10.394;2024-01-10T02:57:49;94560.63;;;-4.76;100.00
18014;BME280;9132;47.946;10.394;2024-01-10T03:00:17;94557.03;;;-4.74;100.00
18014;BME280;9132;47.946;10.394;2024-01-10T03:02:44;94556.03;;;-4.71;100.00
18014;BME280;9132;47.946;10.394;2024-01-10T03:05:10;94553.75;;;-4.76;100.00
18014;BME280;9132;47.946;10.394;2024-01-10T03:07:37;94560.28;;;-4.84;100.00
18014;BME280;9132;47.946;10.394;2024-01-10T03:10:04;94556.03;;;-4.85;100.00
18014;BME280;9132;47.946;10.394;2024-01-10T03:12:31;94555.13;;;-4.84;100.00
18014;BME280;9132;47.946;10.394;2024-01-10T03:14:57;94561.09;;;-4.84;100.00
18014;BME280;9132;47.946;10.394;2024-01-10T03:17:25;94558.34;;;-4.81;100.00
18014;BME280;9132;47.946;10.394;2024-01-10T03:19:52;94553.81;;;-4.77;100.00
18014;BME280;9132;47.946;10.394;2024-01-10T03:22:18;94562.47;;;-4.78;100.00
18014;BME280;9132;47.946;10.394;2024-01-10T03:24:45;94564.31;;;-4.80;100.00
18014;BME280;9132;47.946;10.394;2024-01-10T03:27:11;94555.19;;;-4.86;100.00
18014;BME280;9132;47.946;10.394;2024-01-10T03:29:38;94559.97;;;-4.80;100.00
18014;BME280;9132;47.946;10.394;2024-01-10T03:32:05;94552.91;;;-4.76;100.00
18014;BME280;9132;47.946;10.394;2024-01-10T03:34:33;94550.06;;;-4.72;100.00
18014;BME280;9132;47.946;10.394;2024-01-10T03:36:59;94549.06;;;-4.69;100.00
18014;BME280;9132;47.946;10.394;2024-01-10T03:39:26;94560.91;;;-4.67;100.00
18014;BME280;9132;47.946;10.394;2024-01-10T03:41:52;94556.78;;;-4.69;100.00
18014;BME280;9132;47.946;10.394;2024-01-10T03:44:19;94559.34;;;-4.69;100.00
18014;BME280;9132;47.946;10.394;2024-01-10T03:46:45;94558.31;;;-4.67;100.00
18014;BME280;9132;47.946;10.394;2024-01-10T03:49:12;94563.47;;;-4.67;100.00
18014;BME280;9132;47.946;10.394;2024-01-10T03:51:40;94553.84;;;-4.63;100.00
18014;BME280;9132;47.946;10.394;2024-01-10T03:54:07;94555.47;;;-4.62;100.00
18014;BME280;9132;47.946;10.394;2024-01-10T03:56:33;94551.16;;;-4.61;100.00
18014;BME280;9132;47.946;10.394;2024-01-10T03:59:00;94556.13;;;-4.58;100.00
18014;BME280;9132;47.946;10.394;2024-01-10T04:01:27;94550.16;;;-4.59;100.00
18014;BME280;9132;47.946;10.394;2024-01-10T04:03:54;94550.41;;;-4.63;100.00
18014;BME280;9132;47.946;10.394;2024-01-10T04:06:20;94546.94;;;-4.62;100.00
18014;BME280;9132;47.946;10.394;2024-01-10T04:08:48;94553.84;;;-4.63;100.00
18014;BME280;9132;47.946;10.394;2024-01-10T04:11:15;94558.06;;;-4.62;100.00
18014;BME280;9132;47.946;10.394;2024-01-10T04:13:41;94551.09;;;-4.60;100.00
18014;BME280;9132;47.946;10.394;2024-01-10T04:16:08;94545.06;;;-4.60;100.00
18014;BME280;9132;47.946;10.394;2024-01-10T04:18:34;94558.88;;;-4.61;100.00
18014;BME280;9132;47.946;10.394;2024-01-10T04:21:01;94548.59;;;-4.61;100.00
18014;BME280;9132;47.946;10.394;2024-01-10T04:23:28;94548.59;;;-4.61;100.00
18014;BME280;9132;47.946;10.394;2024-01-10T04:25:57;94552.91;;;-4.62;100.00
18014;BME280;9132;47.946;10.394;2024-01-10T04:28:23;94547.84;;;-4.63;100.00
18014;BME280;9132;47.946;10.394;2024-01-10T04:30:50;94544.44;;;-4.64;100.00
18014;BME280;9132;47.946;10.394;2024-01-10T04:33:16;94547.94;;;-4.65;100.00
18014;BME280;9132;47.946;10.394;2024-01-10T04:35:43;94553.91;;;-4.64;100.00
18014;BME280;9132;47.946;10.394;2024-01-10T04:38:10;94553.84;;;-4.63;100.00
18014;BME280;9132;47.946;10.394;2024-01-10T04:40:36;94551.28;;;-4.63;100.00
18014;BME280;9132;47.946;10.394;2024-01-10T04:43:04;94549.69;;;-4.66;100.00
18014;BME280;9132;47.946;10.394;2024-01-10T04:45:31;94549.69;;;-4.66;100.00
18014;BME280;9132;47.946;10.394;2024-01-10T04:47:58;94546.94;;;-4.62;100.00
18014;BME280;9132;47.946;10.394;2024-01-10T04:50:24;94539.41;;;-4.66;100.00
18014;BME280;9132;47.946;10.394;2024-01-10T04:52:51;94551.63;;;-4.69;100.00
18014;BME280;9132;47.946;10.394;2024-01-10T04:55:17;94546.50;;;-4.69;100.00
18014;BME280;9132;47.946;10.394;2024-01-10T04:57:44;94554.41;;;-4.72;100.00
18014;BME280;9132;47.946;10.394;2024-01-10T05:00:12;94549.97;;;-4.70;100.00
18014;BME280;9132;47.946;10.394;2024-01-10T05:02:39;94557.44;;;-4.66;100.00
18014;BME280;9132;47.946;10.394;2024-01-10T05:05:06;94561.94;;;-4.69;100.00
18014;BME280;9132;47.946;10.394;2024-01-10T05:07:33;94565.22;;;-4.67;100.00
18014;BME280;9132;47.946;10.394;2024-01-10T05:09:59;94554.94;;;-4.67;100.00
18014;BME280;9132;47.946;10.394;2024-01-10T05:12:26;94560.81;;;-4.65;100.00
18014;BME280;9132;47.946;10.394;2024-01-10T05:14:52;94563.28;;;-4.63;100.00
18014;BME280;9132;47.946;10.394;2024-01-10T05:17:20;94552.16;;;-4.64;100.00
18014;BME280;9132;47.946;10.394;2024-01-10T05:19:47;94553.09;;;-4.65;100.00
18014;BME280;9132;47.946;10.394;2024-01-10T05:22:13;94558.25;;;-4.65;100.00
18014;BME280;9132;47.946;10.394;2024-01-10T05:24:40;94558.53;;;-4.70;100.00
18014;BME280;9132;47.946;10.394;2024-01-10T05:27:06;94561.19;;;-4.71;100.00
18014;BME280;9132;47.946;10.394;2024-01-10T05:29:33;94560.63;;;-4.76;100.00
18014;BME280;9132;47.946;10.394;2024-01-10T05:31:59;94557.41;;;-4.80;100.00
18014;BME280;9132;47.946;10.394;2024-01-10T05:34:27;94560.09;;;-4.81;100.00
18014;BME280;9132;47.946;10.394;2024-01-10T05:36:54;94561.09;;;-4.84;100.00
18014;BME280;9132;47.946;10.394;2024-01-10T05:39:20;94562.09;;;-4.86;100.00
18014;BME280;9132;47.946;10.394;2024-01-10T05:41:47;94560.44;;;-4.87;100.00
18014;BME280;9132;47.946;10.394;2024-01-10T05:44:14;94560.44;;;-4.87;100.00
18014;BME280;9132;47.946;10.394;2024-01-10T05:46:40;94559.81;;;-4.91;100.00
18014;BME280;9132;47.946;10.394;2024-01-10T05:49:07;94568.53;;;-4.94;100.00
18014;BME280;9132;47.946;10.394;2024-01-10T05:51:35;94567.59;;;-4.93;100.00
18014;BME280;9132;47.946;10.394;2024-01-10T05:54:03;94566.78;;;-4.93;100.00
18014;BME280;9132;47.946;10.394;2024-01-10T05:56:29;94566.88;;;-4.95;100.00
18014;BME280;9132;47.946;10.394;2024-01-10T05:58:56;94572.84;;;-4.94;100.00
18014;BME280;9132;47.946;10.394;2024-01-10T06:01:22;94570.28;;;-4.94;100.00
18014;BME280;9132;47.946;10.394;2024-01-10T06:03:49;94565.97;;;-4.94;100.00
18014;BME280;9132;47.946;10.394;2024-01-10T06:06:15;94573.84;;;-4.97;100.00
18014;BME280;9132;47.946;10.394;2024-01-10T06:08:43;94570.81;;;-5.03;100.00
18014;BME280;9132;47.946;10.394;2024-01-10T06:11:10;94575.41;;;-5.08;100.00
18014;BME280;9132;47.946;10.394;2024-01-10T06:13:37;94573.00;;;-5.12;100.00
18014;BME280;9132;47.946;10.394;2024-01-10T06:16:03;94571.44;;;-5.14;100.00
18014;BME280;9132;47.946;10.394;2024-01-10T06:18:30;94569.88;;;-5.17;100.00
18014;BME280;9132;47.946;10.394;2024-01-10T06:20:57;94563.16;;;-5.19;100.00
18014;BME280;9132;47.946;10.394;2024-01-10T06:23:23;94566.75;;;-5.22;100.00
18014;BME280;9132;47.946;10.394;2024-01-10T06:25:51;94571.13;;;-5.24;100.00
18014;BME280;9132;47.946;10.394;2024-01-10T06:28:19;94575.75;;;-5.29;100.00
18014;BME280;9132;47.946;10.394;2024-01-10T06:30:46;94575.97;;;-5.33;100.00
18014;BME280;9132;47.946;10.394;2024-01-10T06:33:12;94569.28;;;-5.36;100.00
18014;BME280;9132;47.946;10.394;2024-01-10T06:35:40;94564.50;;;-5.42;100.00
18014;BME280;9132;47.946;10.394;2024-01-10T06:38:08;94568.16;;;-5.46;100.00
18014;BME280;9132;47.946;10.394;2024-01-10T06:40:35;94561.59;;;-5.52;100.00
18014;BME280;9132;47.946;10.394;2024-01-10T06:43:03;94570.41;;;-5.56;100.00
18014;BME280;9132;47.946;10.394;2024-01-10T06:45:30;94564.72;;;-5.61;100.00
18014;BME280;9132;47.946;10.394;2024-01-10T06:47:56;94566.63;;;-5.65;100.00
18014;BME280;9132;47.946;10.394;2024-01-10T06:50:23;94568.47;;;-5.67;100.00
18014;BME280;9132;47.946;10.394;2024-01-10T06:52:49;94571.19;;;-5.70;100.00
18014;BME280;9132;47.946;10.394;2024-01-10T06:55:16;94582.66;;;-5.75;100.00
18014;BME280;9132;47.946;10.394;2024-01-10T06:57:43;94583.63;;;-5.78;100.00
18014;BME280;9132;47.946;10.394;2024-01-10T07:00:13;94587.31;;;-5.82;100.00
18014;BME280;9132;47.946;10.394;2024-01-10T07:02:40;94582.06;;;-5.80;100.00
18014;BME280;9132;47.946;10.394;2024-01-10T07:05:07;94585.66;;;-5.83;100.00
18014;BME280;9132;47.946;10.394;2024-01-10T07:07:34;94580.09;;;-5.91;100.00
18014;BME280;9132;47.946;10.394;2024-01-10T07:10:01;94587.91;;;-5.93;100.00
18014;BME280;9132;47.946;10.394;2024-01-10T07:12:30;94589.16;;;-6.00;100.00
18014;BME280;9132;47.946;10.394;2024-01-10T07:14:56;94594.63;;;-6.06;100.00
18014;BME280;9132;47.946;10.394;2024-01-10T07:17:24;94592.34;;;-6.11;100.00
18014;BME280;9132;47.946;10.394;2024-01-10T07:19:51;94600.25;;;-6.15;100.00
18014;BME280;9132;47.946;10.394;2024-01-10T07:22:17;94592.72;;;-6.18;100.00
18014;BME280;9132;47.946;10.394;2024-01-10T07:24:44;94606.66;;;-6.22;100.00
18014;BME280;9132;47.946;10.394;2024-01-10T07:27:11;94613.59;;;-6.24;100.00
18014;BME280;9132;47.946;10.394;2024-01-10T07:29:39;94609.53;;;-6.28;100.00
18014;BME280;9132;47.946;10.394;2024-01-10T07:32:07;94616.31;;;-6.27;100.00
18014;BME280;9132;47.946;10.394;2024-01-10T07:34:37;94613.75;;;-6.27;100.00
18014;BME280;9132;47.946;10.394;2024-01-10T07:37:04;94623.19;;;-6.28;100.00
18014;BME280;9132;47.946;10.394;2024-01-10T07:39:30;94613.09;;;-6.31;100.00
18014;BME280;9132;47.946;10.394;2024-01-10T07:41:57;94623.53;;;-6.34;100.00
18014;BME280;9132;47.946;10.394;2024-01-10T07:44:24;94622.69;;;-6.35;100.00
18014;BME280;9132;47.946;10.394;2024-01-10T07:46:51;94627.84;;;-6.35;100.00
18014;BME280;9132;47.946;10.394;2024-01-10T07:49:20;94633.97;;;-6.37;100.00
18014;BME280;9132;47.946;10.394;2024-01-10T07:51:48;94641.75;;;-6.39;100.00
18014;BME280;9132;47.946;10.394;2024-01-10T07:54:15;94639.34;;;-6.42;100.00
18014;BME280;9132;47.946;10.394;2024-01-10T07:56:41;94652.19;;;-6.42;100.00
18014;BME280;9132;47.946;10.394;2024-01-10T07:59:08;94649.63;;;-6.42;100.00
18014;BME280;9132;47.946;10.394;2024-01-10T08:01:34;94649.69;;;-6.43;100.00
18014;BME280;9132;47.946;10.394;2024-01-10T08:04:01;94647.97;;;-6.43;100.00
18014;BME280;9132;47.946;10.394;2024-01-10T08:06:27;94653.59;;;-6.36;100.00
18014;BME280;9132;47.946;10.394;2024-01-10T08:08:55;94651.44;;;-6.28;100.00
18014;BME280;9132;47.946;10.394;2024-01-10T08:11:22;94649.38;;;-6.21;100.00
18014;BME280;9132;47.946;10.394;2024-01-10T08:13:49;94652.44;;;-6.15;100.00
18014;BME280;9132;47.946;10.394;2024-01-10T08:16:16;94659.66;;;-6.06;100.00
18014;BME280;9132;47.946;10.394;2024-01-10T08:18:43;94655.72;;;-5.95;100.00
18014;BME280;9132;47.946;10.394;2024-01-10T08:21:10;94661.06;;;-5.84;100.00
18014;BME280;9132;47.946;10.394;2024-01-10T08:23:37;94661.38;;;-5.74;100.00
18014;BME280;9132;47.946;10.394;2024-01-10T08:26:07;94660.72;;;-5.62;100.00
18014;BME280;9132;47.946;10.394;2024-01-10T08:28:34;94668.69;;;-5.51;100.00
18014;BME280;9132;47.946;10.394;2024-01-10T08:31:00;94670.81;;;-5.43;100.00
18014;BME280;9132;47.946;10.394;2024-01-10T08:33:28;94668.91;;;-5.40;100.00
18014;BME280;9132;47.946;10.394;2024-01-10T08:35:55;94668.66;;;-5.35;100.00
18014;BME280;9132;47.946;10.394;2024-01-10T08:38:22;94666.63;;;-5.30;100.00
18014;BME280;9132;47.946;10.394;2024-01-10T08:40:49;94664.66;;;-5.25;100.00
18014;BME280;9132;47.946;10.394;2024-01-10T08:43:17;94673.03;;;-5.21;100.00
18014;BME280;9132;47.946;10.394;2024-01-10T08:45:44;94675.34;;;-5.17;100.00
18014;BME280;9132;47.946;10.394;2024-01-10T08:48:10;94673.50;;;-5.15;100.00
18014;BME280;9132;47.946;10.394;2024-01-10T08:50:38;94671.69;;;-5.13;100.00
18014;BME280;9132;47.946;10.394;2024-01-10T08:53:05;94672.97;;;-5.05;100.00
18014;BME280;9132;47.946;10.394;2024-01-10T08:55:31;94676.22;;;-5.02;100.00
18014;BME280;9132;47.946;10.394;2024-01-10T08:57:59;94678.44;;;-4.96;100.00
18014;BME280;9132;47.946;10.394;2024-01-10T09:00:27;94684.16;;;-4.91;100.00
18014;BME280;9132;47.946;10.394;2024-01-10T09:02:54;94679.47;;;-4.84;100.00
18014;BME280;9132;47.946;10.394;2024-01-10T09:05:21;94686.69;;;-4.75;100.00
18014;BME280;9132;47.946;10.394;2024-01-10T09:07:47;94687.78;;;-4.64;100.00
18014;BME280;9132;47.946;10.394;2024-01-10T09:10:14;94686.59;;;-4.59;100.00
18014;BME280;9132;47.946;10.394;2024-01-10T09:12:41;94689.19;;;-4.45;100.00
18014;BME280;9132;47.946;10.394;2024-01-10T09:15:11;94689.56;;;-4.36;100.00
18014;BME280;9132;47.946;10.394;2024-01-10T09:17:41;94694.53;;;-4.33;100.00
18014;BME280;9132;47.946;10.394;2024-01-10T09:20:08;94698.88;;;-4.34;100.00
18014;BME280;9132;47.946;10.394;2024-01-10T09:22:35;94695.00;;;-4.27;100.00
18014;BME280;9132;47.946;10.394;2024-01-10T09:25:03;94698.16;;;-4.22;100.00
18014;BME280;9132;47.946;10.394;2024-01-10T09:27:31;94699.53;;;-4.16;100.00
18014;BME280;9132;47.946;10.394;2024-01-10T09:29:57;94702.22;;;-4.03;100.00
18014;BME280;9132;47.946;10.394;2024-01-10T09:32:24;94698.84;;;-3.91;100.00
18014;BME280;9132;47.946;10.394;2024-01-10T09:34:52;94702.25;;;-3.76;100.00
18014;BME280;9132;47.946;10.394;2024-01-10T09:37:18;94710.88;;;-3.63;100.00
18014;BME280;9132;47.946;10.394;2024-01-10T09:39:45;94710.25;;;-3.52;100.00
18014;BME280;9132;47.946;10.394;2024-01-10T09:42:12;94711.25;;;-3.40;100.00
18014;BME280;9132;47.946;10.394;2024-01-10T09:44:40;94710.13;;;-3.36;100.00
18014;BME280;9132;47.946;10.394;2024-01-10T09:47:07;94711.88;;;-3.37;100.00
18014;BME280;9132;47.946;10.394;2024-01-10T09:49:36;94713.72;;;-3.39;100.00
18014;BME280;9132;47.946;10.394;2024-01-10T09:52:08;94709.47;;;-3.40;100.00
18014;BME280;9132;47.946;10.394;2024-01-10T09:54:38;94718.03;;;-3.39;100.00
18014;BME280;9132;47.946;10.394;2024-01-10T09:57:05;94721.63;;;-3.42;100.00
18014;BME280;9132;47.946;10.394;2024-01-10T09:59:31;94708.16;;;-3.33;100.00
18014;BME280;9132;47.946;10.394;2024-01-10T10:01:59;94714.78;;;-3.29;100.00
18014;BME280;9132;47.946;10.394;2024-01-10T10:04:27;94710.06;;;-3.22;100.00
18014;BME280;9132;47.946;10.394;2024-01-10T10:06:58;94708.38;;;-3.09;100.00
18014;BME280;9132;47.946;10.394;2024-01-10T10:09:28;94708.31;;;-2.94;100.00
18014;BME280;9132;47.946;10.394;2024-01-10T10:11:55;94721.44;;;-2.85;100.00
18014;BME280;9132;47.946;10.394;2024-01-10T10:14:23;94711.66;;;-2.80;100.00
18014;BME280;9132;47.946;10.394;2024-01-10T10:16:51;94716.31;;;-2.72;100.00
18014;BME280;9132;47.946;10.394;2024-01-10T10:19:22;94716.09;;;-2.69;100.00
18014;BME280;9132;47.946;10.394;2024-01-10T10:21:49;94715.81;;;-2.64;100.00
18014;BME280;9132;47.946;10.394;2024-01-10T10:24:16;94721.38;;;-2.70;100.00
18014;BME280;9132;47.946;10.394;2024-01-10T10:26:44;94720.84;;;-2.75;100.00
18014;BME280;9132;47.946;10.394;2024-01-10T10:29:11;94720.56;;;-2.71;100.00
18014;BME280;9132;47.946;10.394;2024-01-10T10:31:37;94709.09;;;-2.67;100.00
18014;BME280;9132;47.946;10.394;2024-01-10T10:34:04;94712.00;;;-2.59;100.00
18014;BME280;9132;47.946;10.394;2024-01-10T10:36:30;94714.69;;;-2.60;100.00
18014;BME280;9132;47.946;10.394;2024-01-10T10:38:59;94715.91;;;-2.66;100.00
18014;BME280;9132;47.946;10.394;2024-01-10T10:41:29;94710.03;;;-2.68;100.00
18014;BME280;9132;47.946;10.394;2024-01-10T10:43:58;94713.66;;;-2.58;100.00
18014;BME280;9132;47.946;10.394;2024-01-10T10:46:27;94712.66;;;-2.42;100.00
18014;BME280;9132;47.946;10.394;2024-01-10T10:48:54;94722.88;;;-2.28;100.00
18014;BME280;9132;47.946;10.394;2024-01-10T10:51:27;94711.22;;;-2.08;100.00
18014;BME280;9132;47.946;10.394;2024-01-10T10:53:54;94712.03;;;-1.95;100.00
18014;BME280;9132;47.946;10.394;2024-01-10T10:56:23;94712.94;;;-1.83;100.00
18014;BME280;9132;47.946;10.394;2024-01-10T10:58:50;94702.59;;;-1.83;100.00
18014;BME280;9132;47.946;10.394;2024-01-10T11:01:19;94710.59;;;-1.73;100.00
18014;BME280;9132;47.946;10.394;2024-01-10T11:03:48;94709.13;;;-1.77;100.00
18014;BME280;9132;47.946;10.394;2024-01-10T11:06:17;94714.09;;;-1.74;100.00
18014;BME280;9132;47.946;10.394;2024-01-10T11:08:47;94709.09;;;-1.65;100.00
18014;BME280;9132;47.946;10.394;2024-01-10T11:11:26;94704.44;;;-1.59;100.00
18014;BME280;9132;47.946;10.394;2024-01-10T11:14:08;94703.69;;;-1.49;100.00
18014;BME280;9132;47.946;10.394;2024-01-10T11:16:51;94702.44;;;-1.43;100.00
18014;BME280;9132;47.946;10.394;2024-01-10T11:19:52;94700.22;;;-1.36;100.00
18014;BME280;9132;47.946;10.394;2024-01-10T11:22:37;94699.81;;;-1.30;100.00
18014;BME280;9132;47.946;10.394;2024-01-10T11:25:06;94700.09;;;-1.22;100.00
18014;BME280;9132;47.946;10.394;2024-01-10T11:27:33;94695.75;;;-1.22;100.00
18014;BME280;9132;47.946;10.394;2024-01-10T11:30:00;94703.69;;;-1.12;100.00
18014;BME280;9132;47.946;10.394;2024-01-10T11:32:29;94696.56;;;-1.21;100.00
18014;BME280;9132;47.946;10.394;2024-01-10T11:34:57;94703.00;;;-1.27;100.00
18014;BME280;9132;47.946;10.394;2024-01-10T11:37:28;94699.16;;;-1.21;100.00
18014;BME280;9132;47.946;10.394;2024-01-10T11:39:55;94694.19;;;-1.24;100.00
18014;BME280;9132;47.946;10.394;2024-01-10T11:42:22;94696.06;;;-1.26;100.00
18014;BME280;9132;47.946;10.394;2024-01-10T11:44:50;94697.44;;;-1.33;100.00
18014;BME280;9132;47.946;10.394;2024-01-10T11:47:17;94696.72;;;-1.35;100.00
18014;BME280;9132;47.946;10.394;2024-01-10T11:49:56;94697.97;;;-1.41;100.00
18014;BME280;9132;47.946;10.394;2024-01-10T11:52:23;94701.47;;;-1.42;100.00
18014;BME280;9132;47.946;10.394;2024-01-10T11:54:49;94707.50;;;-1.42;100.00
18014;BME280;9132;47.946;10.394;2024-01-10T11:57:20;94704.06;;;-1.42;100.00
18014;BME280;9132;47.946;10.394;2024-01-10T11:59:50;94702.22;;;-1.40;100.00
18014;BME280;9132;47.946;10.394;2024-01-10T12:02:18;94703.03;;;-1.40;100.00
18014;BME280;9132;47.946;10.394;2024-01-10T12:04:44;94704.97;;;-1.30;100.00
18014;BME280;9132;47.946;10.394;2024-01-10T12:07:13;94706.63;;;-1.29;100.00
18014;BME280;9132;47.946;10.394;2024-01-10T12:09:39;94711.38;;;-1.23;100.00
18014;BME280;9132;47.946;10.394;2024-01-10T12:12:07;94707.47;;;-1.29;100.00
18014;BME280;9132;47.946;10.394;2024-01-10T12:14:34;94700.56;;;-1.41;100.00
18014;BME280;9132;47.946;10.394;2024-01-10T12:17:00;94694.47;;;-1.53;100.00
18014;BME280;9132;47.946;10.394;2024-01-10T12:19:29;94696.75;;;-1.48;100.00
18014;BME280;9132;47.946;10.394;2024-01-10T12:21:56;94690.09;;;-1.40;100.00
18014;BME280;9132;47.946;10.394;2024-01-10T12:24:27;94690.25;;;-1.30;100.00
18014;BME280;9132;47.946;10.394;2024-01-10T12:26:55;94690.78;;;-1.25;100.00
18014;BME280;9132;47.946;10.394;2024-01-10T12:29:21;94688.06;;;-1.23;100.00
18014;BME280;9132;47.946;10.394;2024-01-10T12:31:49;94687.16;;;-1.22;100.00
18014;BME280;9132;47.946;10.394;2024-01-10T12:34:16;94695.31;;;-1.15;100.00
18014;BME280;9132;47.946;10.394;2024-01-10T12:36:43;94691.72;;;-1.26;100.00
18014;BME280;9132;47.946;10.394;2024-01-10T12:39:09;94683.09;;;-1.26;100.00
18014;BME280;9132;47.946;10.394;2024-01-10T12:41:37;94690.06;;;-1.27;100.00
18014;BME280;9132;47.946;10.394;2024-01-10T12:44:04;94688.50;;;-1.29;100.00
18014;BME280;9132;47.946;10.394;2024-01-10T12:46:32;94682.63;;;-1.31;100.00
18014;BME280;9132;47.946;10.394;2024-01-10T12:48:59;94681.19;;;-1.35;100.00
18014;BME280;9132;47.946;10.394;2024-01-10T12:51:27;94687.47;;;-1.27;100.00